Time;durP1;ratioP1;P1;durP2;ratioP2;P2;SDS_P1;SDS_P2;PMS_P1;PMS_P2;Temp;Humidity;BMP_temperature;BMP_pressure;BME280_temperature;BME280_humidity;BME280_pressure;Samples;Min_cycle;Max_cycle;Signal;HPM_P1;HPM_P2
2023/07/16 00:01:13;;;;;;;4.00;3.60;;;21.50;99.90;;;;;;5092844;28;20559;-84
2023/07/16 00:03:39;;;;;;;3.65;3.30;;;21.50;99.90;;;;;;5094600;28;20308;-84
2023/07/16 00:06:06;;;;;;;6.15;3.65;;;21.50;99.90;;;;;;5094663;28;20208;-82
2023/07/16 00:08:33;;;;;;;4.45;3.40;;;21.50;99.90;;;;;;5094847;28;20204;-84
2023/07/16 00:11:01;;;;;;;4.18;3.47;;;21.50;99.90;;;;;;5098303;28;20720;-84
2023/07/16 00:13:28;;;;;;;5.47;3.50;;;21.60;99.90;;;;;;5096280;28;20696;-84
2023/07/16 00:15:55;;;;;;;5.75;3.75;;;21.60;99.90;;;;;;5096521;28;20221;-84
2023/07/16 00:18:21;;;;;;;5.97;3.90;;;21.60;99.90;;;;;;5096884;28;20234;-84
2023/07/16 00:20:48;;;;;;;4.10;3.53;;;21.60;99.90;;;;;;5097066;28;20229;-85
2023/07/16 00:23:15;;;;;;;4.85;3.40;;;21.40;99.90;;;;;;5096830;28;20223;-84
2023/07/16 00:25:42;;;;;;;4.93;3.38;;;21.40;99.90;;;;;;5096531;28;20715;-85
2023/07/16 00:28:11;;;;;;;4.40;3.00;;;21.30;99.90;;;;;;5098018;28;20300;-84
2023/07/16 00:30:38;;;;;;;4.72;3.42;;;21.30;99.90;;;;;;5097455;28;20669;-84
2023/07/16 00:33:05;;;;;;;4.43;2.80;;;21.10;99.90;;;;;;5097520;28;20221;-84
2023/07/16 00:35:32;;;;;;;3.00;2.70;;;21.00;99.90;;;;;;5097177;28;20221;-83
2023/07/16 00:37:59;;;;;;;3.58;2.80;;;21.00;99.90;;;;;;5097310;28;20208;-83
2023/07/16 00:40:26;;;;;;;3.50;3.00;;;20.90;99.90;;;;;;5096899;28;20213;-81
2023/07/16 00:42:53;;;;;;;4.28;2.80;;;21.00;99.90;;;;;;5082901;28;20218;-82
2023/07/16 00:45:21;;;;;;;2.85;2.60;;;20.50;99.90;;;;;;5077050;28;20198;-83
2023/07/16 00:47:48;;;;;;;3.22;2.55;;;20.30;99.90;;;;;;5077590;28;20553;-82
2023/07/16 00:50:15;;;;;;;3.70;3.00;;;20.20;99.90;;;;;;5077189;28;20210;-82
2023/07/16 00:52:43;;;;;;;3.80;2.78;;;20.20;99.90;;;;;;5080665;28;20262;-81
2023/07/16 00:55:11;;;;;;;3.53;2.90;;;20.40;99.90;;;;;;5097738;28;20220;-82
2023/07/16 00:57:40;;;;;;;5.18;2.80;;;20.50;99.90;;;;;;5095918;28;20208;-82
2023/07/16 01:00:09;;;;;;;2.80;2.30;;;20.40;99.90;;;;;;5096985;28;20194;-82
2023/07/16 01:02:37;;;;;;;3.28;2.75;;;20.40;99.90;;;;;;5096579;28;20264;-84
2023/07/16 01:05:04;;;;;;;6.25;2.80;;;20.40;99.90;;;;;;5096427;28;20202;-84
2023/07/16 01:07:32;;;;;;;3.75;2.67;;;20.40;99.90;;;;;;5095949;28;20253;-82
2023/07/16 01:09:59;;;;;;;3.90;2.63;;;20.30;99.90;;;;;;5096534;28;20217;-83
2023/07/16 01:12:28;;;;;;;3.25;2.30;;;20.50;99.90;;;;;;5097225;28;20229;-84
2023/07/16 01:14:57;;;;;;;6.30;2.20;;;20.50;99.90;;;;;;5096310;28;20202;-83
2023/07/16 01:17:23;;;;;;;3.30;2.60;;;20.50;99.90;;;;;;5096632;28;20198;-82
2023/07/16 01:19:52;;;;;;;3.08;2.10;;;20.50;99.90;;;;;;5096699;28;20198;-83
2023/07/16 01:22:54;;;;;;;2.05;1.88;;;20.50;99.90;;;;;;5086594;28;20689;-84
2023/07/16 01:25:43;;;;;;;3.83;2.42;;;20.40;99.90;;;;;;5060107;28;20677;-81
2023/07/16 01:28:39;;;;;;;5.03;2.53;;;20.50;99.90;;;;;;5088059;28;20202;-81
2023/07/16 01:31:09;;;;;;;2.90;2.17;;;20.40;99.90;;;;;;5076713;28;20183;-80
2023/07/16 01:33:37;;;;;;;5.38;2.90;;;20.30;99.90;;;;;;5076222;28;20229;-82
2023/07/16 01:36:05;;;;;;;8.07;2.97;;;20.20;99.90;;;;;;5076769;28;20222;-82
2023/07/16 01:38:32;;;;;;;11.52;3.70;;;20.00;99.90;;;;;;5077217;28;20199;-84
2023/07/16 01:41:00;;;;;;;8.63;3.25;;;19.50;99.90;;;;;;5077434;28;20206;-83
2023/07/16 01:43:26;;;;;;;10.93;3.58;;;19.30;99.90;;;;;;5077218;28;20233;-83
2023/07/16 01:45:53;;;;;;;9.40;3.08;;;19.00;99.90;;;;;;5076887;28;20202;-82
2023/07/16 01:48:31;;;;;;;6.22;2.70;;;18.70;99.90;;;;;;5077442;28;20206;-82
2023/07/16 01:50:58;;;;;;;7.75;3.17;;;18.70;99.90;;;;;;5077667;28;20190;-84
2023/07/16 01:53:25;;;;;;;6.10;3.13;;;18.70;99.90;;;;;;5075979;28;20237;-82
2023/07/16 01:55:52;;;;;;;5.32;3.00;;;18.60;99.90;;;;;;5075968;28;20682;-83
2023/07/16 01:58:18;;;;;;;5.57;2.50;;;18.60;99.90;;;;;;5076189;28;20577;-81
2023/07/16 02:00:46;;;;;;;6.30;2.65;;;18.50;99.90;;;;;;5076405;28;20281;-83
2023/07/16 02:03:12;;;;;;;10.57;2.88;;;18.40;99.90;;;;;;5076460;28;20222;-81
2023/07/16 02:05:41;;;;;;;5.97;2.83;;;18.30;99.90;;;;;;5076086;28;20288;-82
2023/07/16 02:08:07;;;;;;;4.85;2.70;;;18.60;99.90;;;;;;5076122;28;20636;-81
2023/07/16 02:10:34;;;;;;;5.55;2.80;;;18.60;99.90;;;;;;5076903;28;20214;-82
2023/07/16 02:13:01;;;;;;;5.28;2.80;;;18.50;99.90;;;;;;5076621;28;20232;-81
2023/07/16 02:15:28;;;;;;;5.45;2.83;;;18.50;99.90;;;;;;5075986;28;20599;-82
2023/07/16 02:17:54;;;;;;;11.07;3.13;;;18.40;99.90;;;;;;5075465;28;20568;-83
2023/07/16 02:20:22;;;;;;;10.40;3.40;;;18.40;99.90;;;;;;5075353;28;20203;-81
2023/07/16 02:22:50;;;;;;;4.97;3.10;;;18.60;99.90;;;;;;5075854;28;20229;-82
2023/07/16 02:25:17;;;;;;;5.57;2.70;;;18.60;99.90;;;;;;5075258;28;20216;-80
2023/07/16 02:27:43;;;;;;;10.10;3.20;;;18.60;99.90;;;;;;5075588;28;20577;-80
2023/07/16 02:30:11;;;;;;;6.35;2.70;;;18.50;99.90;;;;;;5075988;28;20293;-83
2023/07/16 02:32:37;;;;;;;3.20;2.90;;;18.50;99.90;;;;;;5074573;28;20230;-83
2023/07/16 02:35:05;;;;;;;5.90;2.95;;;18.50;99.90;;;;;;5075180;28;20212;-83
2023/07/16 02:37:31;;;;;;;4.28;2.53;;;18.30;99.90;;;;;;5075082;28;20288;-82
2023/07/16 02:40:00;;;;;;;5.28;2.90;;;18.30;99.90;;;;;;5075437;28;20201;-81
2023/07/16 02:42:27;;;;;;;5.03;2.80;;;18.20;99.90;;;;;;5075653;28;20305;-82
2023/07/16 02:44:53;;;;;;;5.50;2.40;;;18.40;99.90;;;;;;5076407;28;20266;-83
2023/07/16 02:47:20;;;;;;;4.15;2.30;;;18.20;99.90;;;;;;5075100;28;20216;-82
2023/07/16 02:49:47;;;;;;;4.63;3.15;;;18.10;99.90;;;;;;5093705;28;20200;-82
2023/07/16 02:52:14;;;;;;;4.65;2.80;;;18.20;99.90;;;;;;5095407;28;20227;-83
2023/07/16 02:54:41;;;;;;;6.68;3.67;;;18.20;99.90;;;;;;5095537;28;20202;-83
2023/07/16 02:57:09;;;;;;;6.70;4.30;;;18.20;99.90;;;;;;5095026;28;20244;-82
2023/07/16 02:59:36;;;;;;;13.55;6.25;;;18.30;99.90;;;;;;5096009;28;20291;-84
2023/07/16 03:02:03;;;;;;;10.30;5.72;;;18.40;99.90;;;;;;5095702;28;20229;-82
2023/07/16 03:04:30;;;;;;;13.65;7.07;;;18.30;99.90;;;;;;5095369;28;20209;-83
2023/07/16 03:06:57;;;;;;;15.80;8.93;;;18.20;99.90;;;;;;5095773;28;20219;-83
2023/07/16 03:09:24;;;;;;;14.52;8.40;;;18.20;99.90;;;;;;5094980;28;20209;-83
2023/07/16 03:11:50;;;;;;;8.40;4.75;;;18.20;99.90;;;;;;5089734;28;20224;-83
2023/07/16 03:14:19;;;;;;;6.65;4.32;;;18.00;99.90;;;;;;5088284;28;20280;-82
2023/07/16 03:16:45;;;;;;;6.65;3.90;;;18.00;99.90;;;;;;5093062;28;20579;-81
2023/07/16 03:19:12;;;;;;;4.72;3.05;;;17.90;99.90;;;;;;5093892;28;20221;-82
2023/07/16 03:21:48;;;;;;;5.03;2.92;;;17.90;99.90;;;;;;5094659;28;20293;-84
2023/07/16 03:24:18;;;;;;;4.40;2.78;;;17.90;99.90;;;;;;5094308;28;20201;-83
2023/07/16 03:26:44;;;;;;;4.68;2.70;;;17.90;99.90;;;;;;5093783;28;20639;-82
2023/07/16 03:29:11;;;;;;;4.60;2.63;;;17.80;99.90;;;;;;5094137;28;20217;-84
2023/07/16 03:31:39;;;;;;;4.38;2.90;;;17.90;99.90;;;;;;5093249;28;20194;-82
2023/07/16 03:34:06;;;;;;;7.35;3.13;;;17.90;99.90;;;;;;5092220;28;20285;-82
2023/07/16 03:36:33;;;;;;;5.28;3.20;;;17.80;99.90;;;;;;5091489;28;20221;-82
2023/07/16 03:39:00;;;;;;;7.80;3.00;;;17.80;99.90;;;;;;5093554;28;20208;-82
2023/07/16 03:41:27;;;;;;;2.97;2.38;;;17.70;99.90;;;;;;5094051;28;20212;-82
2023/07/16 03:43:53;;;;;;;5.03;2.60;;;17.70;99.90;;;;;;5094838;28;20208;-82
2023/07/16 03:46:20;;;;;;;5.50;2.72;;;17.70;99.90;;;;;;5098393;28;20277;-82
2023/07/16 03:48:48;;;;;;;7.65;2.70;;;17.80;99.90;;;;;;5097565;28;20255;-82
2023/07/16 03:51:17;;;;;;;3.65;2.40;;;17.60;99.90;;;;;;5097226;28;20212;-82
2023/07/16 03:53:43;;;;;;;4.80;2.42;;;17.60;99.90;;;;;;5098159;28;20218;-84
2023/07/16 03:56:10;;;;;;;6.72;2.50;;;17.70;99.90;;;;;;5098533;28;20229;-82
2023/07/16 03:58:37;;;;;;;4.15;2.30;;;17.60;99.90;;;;;;5098736;28;20205;-82
2023/07/16 04:01:04;;;;;;;6.88;3.13;;;17.60;99.90;;;;;;5097536;28;20243;-83
2023/07/16 04:03:31;;;;;;;4.18;2.65;;;17.70;99.90;;;;;;5097283;28;20239;-83
2023/07/16 04:06:04;;;;;;;4.50;2.60;;;17.70;99.90;;;;;;5096212;28;20208;-83
2023/07/16 04:08:31;;;;;;;3.83;2.60;;;17.60;99.90;;;;;;5096904;28;20190;-81
2023/07/16 04:10:58;;;;;;;4.05;2.50;;;17.70;99.90;;;;;;5052260;28;1290057;-81
2023/07/16 04:13:25;;;;;;;4.65;2.30;;;17.70;99.90;;;;;;5098032;28;20221;-83
2023/07/16 04:15:53;;;;;;;8.77;2.47;;;17.90;99.90;;;;;;5098041;28;20206;-82
2023/07/16 04:18:19;;;;;;;6.47;2.38;;;17.80;99.90;;;;;;5098112;28;20292;-84
2023/07/16 04:20:46;;;;;;;4.82;2.20;;;18.00;99.90;;;;;;5097982;28;20574;-83
2023/07/16 04:23:14;;;;;;;4.32;2.47;;;18.50;99.90;;;;;;5097246;28;20221;-83
2023/07/16 04:25:41;;;;;;;3.35;2.20;;;18.90;99.90;;;;;;5097124;28;20206;-83
2023/07/16 04:28:08;;;;;;;3.17;2.47;;;19.80;99.90;;;;;;5097634;28;20807;-83
2023/07/16 04:30:37;;;;;;;2.55;2.20;;;20.30;99.90;;;;;;5097486;28;20213;-83
2023/07/16 04:33:03;;;;;;;5.15;2.35;;;19.50;99.90;;;;;;5096936;28;20264;-83
2023/07/16 04:35:30;;;;;;;4.15;2.10;;;18.80;99.90;;;;;;5097601;28;20310;-83
2023/07/16 04:37:57;;;;;;;5.28;2.20;;;18.70;99.90;;;;;;5098357;28;20226;-83
2023/07/16 04:40:25;;;;;;;5.65;2.35;;;18.50;99.90;;;;;;5098645;28;20198;-82
2023/07/16 04:42:52;;;;;;;4.13;2.30;;;18.40;99.90;;;;;;5097649;28;20213;-83
2023/07/16 04:45:19;;;;;;;4.47;2.67;;;18.40;99.90;;;;;;5097400;28;20202;-82
2023/07/16 04:47:48;;;;;;;3.17;2.45;;;18.30;99.90;;;;;;5077995;28;20197;-84
2023/07/16 04:50:14;;;;;;;3.97;2.40;;;18.30;99.90;;;;;;5077660;28;20218;-83
2023/07/16 04:52:41;;;;;;;5.75;2.50;;;18.20;99.90;;;;;;5078567;28;20268;-83
2023/07/16 04:55:08;;;;;;;4.53;2.20;;;18.30;99.90;;;;;;5096398;28;20194;-84
2023/07/16 04:57:37;;;;;;;7.35;2.42;;;18.30;99.90;;;;;;5097205;28;20221;-81
2023/07/16 05:00:05;;;;;;;3.40;2.10;;;18.20;99.90;;;;;;5084117;28;20194;-82
2023/07/16 05:02:32;;;;;;;4.65;2.72;;;18.30;99.90;;;;;;5077835;28;20688;-83
2023/07/16 05:04:59;;;;;;;5.28;2.53;;;18.30;99.90;;;;;;5096841;28;20204;-83
2023/07/16 05:07:26;;;;;;;4.95;2.30;;;18.30;99.90;;;;;;5096283;28;20194;-83
2023/07/16 05:09:53;;;;;;;7.78;2.25;;;18.40;99.90;;;;;;5096000;28;20201;-83
2023/07/16 05:12:19;;;;;;;4.97;2.50;;;18.50;99.90;;;;;;5095483;28;20225;-82
2023/07/16 05:14:49;;;;;;;6.05;2.65;;;18.50;99.90;;;;;;5095887;28;20202;-81
2023/07/16 05:17:16;;;;;;;6.78;2.30;;;18.60;99.90;;;;;;5095631;28;20308;-83
2023/07/16 05:19:43;;;;;;;4.20;2.40;;;18.60;99.90;;;;;;5096908;28;20679;-83
2023/07/16 05:22:10;;;;;;;4.80;2.78;;;18.70;99.90;;;;;;5098030;28;20224;-84
2023/07/16 05:24:37;;;;;;;3.17;2.30;;;19.00;99.90;;;;;;5096368;28;20209;-84
2023/07/16 05:27:04;;;;;;;6.85;2.83;;;19.10;99.90;;;;;;5096779;28;20201;-84
2023/07/16 05:29:31;;;;;;;4.22;2.50;;;19.40;99.90;;;;;;5096269;28;20208;-84
2023/07/16 05:31:59;;;;;;;3.53;2.35;;;19.20;99.90;;;;;;5096147;28;20241;-84
2023/07/16 05:34:26;;;;;;;6.35;2.45;;;19.70;99.90;;;;;;5097071;28;20207;-85
2023/07/16 05:36:55;;;;;;;4.30;2.38;;;20.10;99.90;;;;;;5096752;28;20224;-83
2023/07/16 05:39:22;;;;;;;3.72;2.50;;;19.90;99.90;;;;;;5092776;28;20617;-83
2023/07/16 05:41:49;;;;;;;3.42;2.45;;;19.70;99.90;;;;;;5088683;28;20221;-83
2023/07/16 05:44:17;;;;;;;4.75;2.72;;;19.70;99.90;;;;;;5099180;28;20574;-83
2023/07/16 05:46:44;;;;;;;6.28;2.78;;;19.60;99.90;;;;;;5079522;28;20277;-83
2023/07/16 05:49:12;;;;;;;5.38;3.17;;;19.70;99.90;;;;;;5099951;28;20233;-81
2023/07/16 05:51:39;;;;;;;3.75;2.58;;;20.70;99.90;;;;;;5093261;28;20297;-83
2023/07/16 05:54:06;;;;;;;4.78;2.90;;;20.70;99.90;;;;;;5098820;28;20200;-82
2023/07/16 05:56:34;;;;;;;5.47;2.95;;;21.90;99.90;;;;;;5098721;28;20210;-82
2023/07/16 05:59:01;;;;;;;5.47;2.17;;;22.20;99.90;;;;;;5099763;28;20208;-82
2023/07/16 06:01:27;;;;;;;2.67;2.47;;;21.50;99.90;;;;;;5099264;28;20280;-82
2023/07/16 06:03:54;;;;;;;4.63;2.58;;;20.80;99.90;;;;;;5090499;28;20668;-82
2023/07/16 06:06:23;;;;;;;4.68;2.78;;;20.30;99.90;;;;;;5097703;28;20213;-83
2023/07/16 06:08:51;;;;;;;3.58;2.50;;;20.20;99.90;;;;;;5098541;28;20197;-83
2023/07/16 06:11:18;;;;;;;4.72;2.70;;;20.00;99.90;;;;;;5100275;28;20609;-82
2023/07/16 06:13:45;;;;;;;3.67;2.53;;;20.00;99.90;;;;;;5091318;28;20221;-82
2023/07/16 06:16:12;;;;;;;5.90;2.60;;;19.90;99.90;;;;;;5082755;28;20206;-83
2023/07/16 06:18:39;;;;;;;4.60;2.45;;;19.80;99.90;;;;;;5097587;28;20614;-84
2023/07/16 06:21:05;;;;;;;4.85;2.45;;;20.00;99.90;;;;;;5098040;28;20232;-85
2023/07/16 06:23:34;;;;;;;4.28;2.58;;;19.80;99.90;;;;;;5096627;28;20257;-83
2023/07/16 06:26:00;;;;;;;4.18;2.42;;;19.80;99.90;;;;;;5077128;28;20594;-84
2023/07/16 06:28:28;;;;;;;6.28;2.92;;;19.90;99.90;;;;;;5085123;28;20198;-83
2023/07/16 06:30:55;;;;;;;8.55;2.53;;;20.00;99.90;;;;;;5098214;28;20221;-84
2023/07/16 06:33:23;;;;;;;5.22;3.25;;;19.90;99.90;;;;;;5090660;28;20210;-83
2023/07/16 06:35:50;;;;;;;3.75;2.72;;;20.00;99.90;;;;;;5083617;28;20304;-85
2023/07/16 06:38:17;;;;;;;4.05;3.13;;;20.00;99.90;;;;;;5088627;28;20516;-84
2023/07/16 06:40:49;;;;;;;3.10;2.83;;;20.10;99.90;;;;;;5092073;28;20261;-83
2023/07/16 06:43:15;;;;;;;5.35;2.70;;;20.00;99.90;;;;;;5082220;28;20225;-83
2023/07/16 06:45:42;;;;;;;5.55;2.80;;;20.10;99.90;;;;;;5088722;28;20250;-82
2023/07/16 06:48:09;;;;;;;8.30;3.30;;;20.00;99.90;;;;;;5081375;28;20225;-85
2023/07/16 06:50:36;;;;;;;3.88;2.97;;;20.10;99.90;;;;;;5090359;28;20216;-84
2023/07/16 06:53:03;;;;;;;3.72;3.15;;;20.20;99.90;;;;;;5079624;28;20222;-86
2023/07/16 06:55:30;;;;;;;5.72;2.80;;;20.20;99.90;;;;;;5088493;28;20284;-85
2023/07/16 06:57:58;;;;;;;5.45;3.45;;;20.10;99.90;;;;;;5095451;28;20223;-82
2023/07/16 07:00:26;;;;;;;3.45;3.08;;;20.20;99.90;;;;;;5095585;28;20224;-83
2023/07/16 07:02:52;;;;;;;4.18;2.92;;;20.20;99.90;;;;;;5094606;28;20226;-81
2023/07/16 07:05:19;;;;;;;4.38;2.70;;;20.30;99.90;;;;;;5093476;28;20194;-83
2023/07/16 07:07:46;;;;;;;5.95;2.75;;;20.40;99.90;;;;;;5085783;28;20221;-82
2023/07/16 07:10:15;;;;;;;6.10;2.90;;;20.30;99.90;;;;;;5096492;28;20637;-83
2023/07/16 07:12:42;;;;;;;3.70;2.70;;;20.40;99.90;;;;;;5097809;28;20232;-83
2023/07/16 07:15:10;;;;;;;5.07;2.50;;;20.50;99.90;;;;;;5093667;28;20575;-84
2023/07/16 07:17:37;;;;;;;8.40;2.78;;;20.60;99.90;;;;;;5078248;28;20705;-83
2023/07/16 07:20:05;;;;;;;4.88;2.70;;;20.50;99.90;;;;;;5086277;28;20296;-85
2023/07/16 07:22:32;;;;;;;5.30;2.60;;;20.50;99.90;;;;;;5082911;28;20221;-83
2023/07/16 07:24:59;;;;;;;6.10;2.70;;;20.60;99.90;;;;;;5095085;28;20292;-86
2023/07/16 07:27:26;;;;;;;4.53;2.33;;;20.70;99.90;;;;;;5089353;28;20210;-81
2023/07/16 07:29:55;;;;;;;4.50;2.35;;;20.70;99.90;;;;;;5087656;28;20201;-84
2023/07/16 07:32:24;;;;;;;4.72;2.28;;;20.70;99.90;;;;;;5096265;28;20643;-83
2023/07/16 07:34:51;;;;;;;5.88;2.50;;;20.70;99.90;;;;;;5094806;28;20210;-85
2023/07/16 07:37:17;;;;;;;5.25;2.38;;;20.80;99.90;;;;;;5092428;28;20672;-85
2023/07/16 07:39:52;;;;;;;5.85;2.90;;;20.90;99.90;;;;;;5094845;28;20206;-84
2023/07/16 07:42:19;;;;;;;6.35;3.38;;;20.80;99.90;;;;;;5095394;28;20220;-84
2023/07/16 07:44:46;;;;;;;4.90;3.28;;;20.70;99.90;;;;;;5093409;28;20700;-84
2023/07/16 07:47:13;;;;;;;4.30;2.70;;;20.80;99.90;;;;;;5077348;28;20205;-84
2023/07/16 07:49:41;;;;;;;4.13;2.22;;;20.90;99.90;;;;;;5091406;28;20206;-82
2023/07/16 07:52:09;;;;;;;6.28;2.60;;;21.10;99.90;;;;;;5094793;28;20697;-84
2023/07/16 07:54:35;;;;;;;4.75;2.25;;;21.20;99.90;;;;;;5090268;28;20865;-85
2023/07/16 07:57:04;;;;;;;4.75;2.40;;;21.20;99.90;;;;;;5088465;28;20259;-83
2023/07/16 07:59:34;;;;;;;6.18;2.67;;;21.10;99.90;;;;;;5091221;28;20197;-83
2023/07/16 08:02:01;;;;;;;7.68;2.58;;;20.90;99.90;;;;;;5089307;28;20241;-82
2023/07/16 08:04:28;;;;;;;4.20;2.30;;;20.90;99.90;;;;;;5091496;28;20664;-84
2023/07/16 08:06:57;;;;;;;5.05;2.25;;;21.00;99.90;;;;;;5086689;28;20204;-83
2023/07/16 08:09:23;;;;;;;4.85;2.72;;;21.10;99.90;;;;;;5085280;28;20725;-82
2023/07/16 08:11:50;;;;;;;6.18;2.58;;;21.20;99.90;;;;;;5089994;28;20767;-84
2023/07/16 08:14:17;;;;;;;8.23;3.20;;;21.10;99.90;;;;;;5078384;28;20208;-84
2023/07/16 08:16:44;;;;;;;5.80;2.65;;;21.20;99.90;;;;;;5080772;28;20206;-83
2023/07/16 08:19:11;;;;;;;4.65;2.42;;;21.30;99.90;;;;;;5086702;28;20224;-82
2023/07/16 08:21:38;;;;;;;4.93;2.15;;;21.10;99.90;;;;;;5088839;28;20205;-84
2023/07/16 08:24:07;;;;;;;4.78;2.70;;;21.30;99.90;;;;;;5088589;28;20205;-85
2023/07/16 08:26:34;;;;;;;3.45;2.70;;;21.40;99.90;;;;;;5087502;28;20271;-83
2023/07/16 08:29:02;;;;;;;8.32;3.10;;;21.30;99.90;;;;;;5089265;28;20549;-83
2023/07/16 08:31:29;;;;;;;4.22;2.60;;;21.40;99.90;;;;;;5096264;28;20212;-84
2023/07/16 08:33:56;;;;;;;5.18;2.38;;;21.70;99.90;;;;;;5096455;28;20669;-85
2023/07/16 08:36:23;;;;;;;4.25;2.85;;;21.60;99.90;;;;;;5096379;28;20237;-84
2023/07/16 08:38:49;;;;;;;5.32;2.53;;;21.70;99.90;;;;;;5097332;28;20309;-84
2023/07/16 08:41:18;;;;;;;5.35;2.80;;;21.70;99.90;;;;;;5096625;28;20284;-85
2023/07/16 08:43:47;;;;;;;5.53;2.50;;;21.80;99.90;;;;;;5079996;28;20214;-84
2023/07/16 08:46:14;;;;;;;6.75;2.53;;;21.80;99.90;;;;;;5083784;28;20669;-84
2023/07/16 08:48:41;;;;;;;7.22;2.97;;;21.80;99.90;;;;;;5096179;28;20198;-83
2023/07/16 08:51:10;;;;;;;4.05;2.85;;;21.90;99.90;;;;;;5096180;28;20297;-83
2023/07/16 08:53:37;;;;;;;3.88;2.78;;;22.00;99.90;;;;;;5095855;28;20308;-84
2023/07/16 08:56:05;;;;;;;6.13;2.75;;;22.30;99.90;;;;;;5095985;28;20202;-84
2023/07/16 08:58:33;;;;;;;5.90;2.85;;;22.20;99.90;;;;;;5096734;28;20249;-84
2023/07/16 09:01:01;;;;;;;5.95;2.70;;;22.40;99.90;;;;;;5095922;28;20574;-83
2023/07/16 09:03:28;;;;;;;4.55;2.58;;;22.80;99.90;;;;;;5095144;28;20228;-83
2023/07/16 09:05:56;;;;;;;3.88;2.58;;;23.20;99.90;;;;;;5096030;28;20254;-85
2023/07/16 09:08:28;;;;;;;3.90;2.30;;;23.00;99.90;;;;;;5097464;28;20204;-83
2023/07/16 09:10:55;;;;;;;5.75;2.55;;;23.50;99.90;;;;;;5087245;28;20222;-84
2023/07/16 09:13:26;;;;;;;4.88;2.20;;;23.70;99.90;;;;;;5095499;28;20213;-83
2023/07/16 09:15:55;;;;;;;5.78;2.67;;;24.00;99.90;;;;;;5095437;28;20735;-83
2023/07/16 09:18:22;;;;;;;5.40;2.38;;;24.20;99.90;;;;;;5095230;28;20229;-83
2023/07/16 09:20:49;;;;;;;3.83;2.22;;;24.50;99.90;;;;;;5095502;28;20274;-83
2023/07/16 09:23:19;;;;;;;5.05;2.70;;;24.10;87.80;;;;;;5094825;28;20232;-83
2023/07/16 09:25:45;;;;;;;3.28;2.20;;;24.10;68.20;;;;;;5094732;28;20206;-83
2023/07/16 09:28:13;;;;;;;5.45;2.40;;;24.30;33.40;;;;;;5095454;28;20650;-83
2023/07/16 09:30:40;;;;;;;5.38;2.45;;;24.40;25.30;;;;;;5094640;28;20292;-83
2023/07/16 09:33:17;;;;;;;4.38;2.47;;;24.70;10.20;;;;;;5094850;28;20256;-82
2023/07/16 09:35:44;;;;;;;5.80;2.75;;;24.60;1.00;;;;;;5094879;28;20920;-83
2023/07/16 09:38:11;;;;;;;5.30;2.40;;;25.00;1.00;;;;;;5094303;28;20669;-83
2023/07/16 09:40:39;;;;;;;5.03;2.50;;;25.20;1.00;;;;;;5094311;28;20202;-82
2023/07/16 09:43:07;;;;;;;4.80;2.45;;;25.60;21.20;;;;;;5094350;28;20222;-82
2023/07/16 09:45:34;;;;;;;3.70;2.00;;;25.80;3.30;;;;;;5095083;28;20296;-84
2023/07/16 09:48:01;;;;;;;7.65;2.85;;;25.50;1.00;;;;;;5094303;28;20255;-81
2023/07/16 09:50:31;;;;;;;2.95;1.88;;;24.80;1.00;;;;;;5086222;28;20237;-82
2023/07/16 09:52:58;;;;;;;3.80;1.95;;;25.10;1.00;;;;;;5083875;28;20221;-81
2023/07/16 09:55:26;;;;;;;3.47;2.08;;;25.40;1.00;;;;;;5090834;28;20198;-82
2023/07/16 09:57:57;;;;;;;3.95;2.53;;;25.50;1.00;;;;;;5091025;28;20194;-80
2023/07/16 10:00:26;;;;;;;4.13;2.00;;;25.50;1.00;;;;;;5084642;28;20208;-82
2023/07/16 10:02:53;;;;;;;5.53;2.45;;;25.30;1.00;;;;;;5084839;28;20225;-83
2023/07/16 10:05:24;;;;;;;5.28;2.20;;;25.50;1.00;;;;;;5080800;28;20584;-83
2023/07/16 10:07:58;;;;;;;6.18;2.40;;;25.70;1.00;;;;;;5087457;28;20224;-82
2023/07/16 10:10:27;;;;;;;4.82;2.20;;;25.80;1.00;;;;;;5080337;28;20198;-82
2023/07/16 10:12:57;;;;;;;3.55;2.88;;;25.10;1.00;;;;;;5086371;28;20233;-83
2023/07/16 10:15:28;;;;;;;3.95;2.40;;;24.90;1.00;;;;;;5082782;28;20206;-83
2023/07/16 10:17:56;;;;;;;5.28;2.25;;;25.60;1.00;;;;;;5089441;28;20288;-83
2023/07/16 10:20:32;;;;;;;4.03;2.10;;;25.60;1.00;;;;;;5074832;28;20710;-82
2023/07/16 10:23:11;;;;;;;4.00;2.20;;;25.90;1.00;;;;;;5089093;28;20668;-84
2023/07/16 10:25:38;;;;;;;3.53;2.40;;;25.50;1.00;;;;;;5080434;28;20568;-82
2023/07/16 10:28:05;;;;;;;6.43;2.47;;;26.30;1.00;;;;;;5084816;28;20198;-83
2023/07/16 10:30:33;;;;;;;3.85;2.40;;;26.40;1.00;;;;;;5094514;28;20564;-82
2023/07/16 10:33:06;;;;;;;3.45;2.00;;;25.90;1.00;;;;;;5090745;28;20244;-82
2023/07/16 10:35:36;;;;;;;4.00;2.38;;;26.40;1.00;;;;;;5089728;28;20262;-82
2023/07/16 10:38:06;;;;;;;4.22;2.38;;;26.50;1.00;;;;;;5094498;28;20210;-83
2023/07/16 10:40:33;;;;;;;3.80;2.70;;;26.40;1.00;;;;;;5087606;28;20201;-83
2023/07/16 10:43:00;;;;;;;3.15;2.10;;;26.90;1.00;;;;;;5088081;28;20218;-84
2023/07/16 10:45:27;;;;;;;3.40;2.25;;;26.50;1.00;;;;;;5090727;28;20201;-83
2023/07/16 10:47:55;;;;;;;4.38;2.78;;;26.50;1.00;;;;;;5089712;28;20205;-83
2023/07/16 10:50:22;;;;;;;3.50;2.70;;;26.50;1.00;;;;;;5092509;28;20197;-81
2023/07/16 10:52:52;;;;;;;2.45;2.10;;;26.50;1.00;;;;;;5093786;28;20221;-82
2023/07/16 10:55:21;;;;;;;3.38;2.13;;;27.00;1.00;;;;;;5093067;28;20553;-81
2023/07/16 10:57:50;;;;;;;4.25;2.88;;;26.60;1.00;;;;;;5090633;28;20236;-81
2023/07/16 11:00:18;;;;;;;4.22;2.50;;;27.20;1.00;;;;;;5089234;28;20572;-82
2023/07/16 11:02:46;;;;;;;3.22;2.42;;;27.20;1.00;;;;;;5092524;28;20249;-83
2023/07/16 11:05:14;;;;;;;6.28;2.55;;;27.10;1.00;;;;;;5094997;28;20201;-83
2023/07/16 11:07:45;;;;;;;4.47;3.00;;;26.90;1.00;;;;;;5074717;28;20206;-83
2023/07/16 11:10:11;;;;;;;3.78;2.60;;;27.30;1.00;;;;;;5088117;28;20608;-82
2023/07/16 11:12:40;;;;;;;4.75;2.88;;;27.20;1.00;;;;;;5092106;28;20228;-80
2023/07/16 11:15:10;;;;;;;4.53;2.65;;;27.10;1.00;;;;;;5097611;28;20638;-81
2023/07/16 11:17:40;;;;;;;4.47;2.70;;;27.30;1.00;;;;;;5095694;28;20284;-82
2023/07/16 11:20:09;;;;;;;6.05;2.92;;;27.30;1.00;;;;;;5092821;28;20622;-81
2023/07/16 11:22:38;;;;;;;3.60;2.40;;;27.60;1.00;;;;;;5085427;28;20710;-81
2023/07/16 11:25:12;;;;;;;5.07;2.53;;;27.30;1.00;;;;;;5088419;28;20206;-82
2023/07/16 11:27:42;;;;;;;3.85;2.88;;;27.50;1.00;;;;;;5089412;28;20217;-82
2023/07/16 11:30:10;;;;;;;3.45;2.75;;;27.30;1.00;;;;;;5096372;28;20231;-82
2023/07/16 11:32:38;;;;;;;3.40;2.55;;;26.70;99.90;;;;;;5092583;28;20294;-81
2023/07/16 11:35:10;;;;;;;3.85;2.63;;;27.00;99.90;;;;;;5090177;28;20228;-82
2023/07/16 11:37:37;;;;;;;6.03;2.90;;;27.60;1.00;;;;;;5089574;28;20581;-81
2023/07/16 11:40:06;;;;;;;4.22;3.20;;;27.20;99.90;;;;;;5094740;28;20232;-83
2023/07/16 11:42:34;;;;;;;3.50;2.92;;;27.20;99.90;;;;;;5088725;28;20225;-82
2023/07/16 11:45:04;;;;;;;4.22;2.85;;;27.10;99.90;;;;;;5093092;28;20202;-83
2023/07/16 11:47:32;;;;;;;3.58;2.85;;;27.60;99.90;;;;;;5090342;28;20213;-82
2023/07/16 11:50:00;;;;;;;5.97;3.15;;;28.00;99.90;;;;;;5086319;28;20312;-82
2023/07/16 11:52:28;;;;;;;5.13;3.05;;;27.60;99.90;;;;;;5085765;28;20227;-82
2023/07/16 11:54:59;;;;;;;5.55;3.38;;;27.20;99.90;;;;;;5078793;28;20198;-83
2023/07/16 11:57:26;;;;;;;4.68;3.28;;;28.10;99.90;;;;;;5089571;28;20231;-84
2023/07/16 11:59:54;;;;;;;8.05;3.58;;;28.00;99.90;;;;;;5086462;28;20222;-84
2023/07/16 12:02:25;;;;;;;3.88;2.70;;;28.00;99.90;;;;;;5084919;28;20659;-84
2023/07/16 12:04:52;;;;;;;3.03;2.72;;;27.20;1.00;;;;;;5088370;28;20212;-81
2023/07/16 12:07:32;;;;;;;4.63;2.75;;;27.40;1.00;;;;;;5088846;28;20205;-81
2023/07/16 12:10:00;;;;;;;5.28;3.17;;;27.70;1.00;;;;;;5096768;28;20423;-82
2023/07/16 12:12:26;;;;;;;4.05;2.75;;;27.80;1.00;;;;;;5083290;28;20678;-82
2023/07/16 12:14:53;;;;;;;3.30;2.75;;;28.50;99.90;;;;;;5092660;28;20205;-83
2023/07/16 12:17:20;;;;;;;4.95;2.92;;;28.40;96.50;;;;;;5096658;28;20208;-82
2023/07/16 12:19:48;;;;;;;4.25;2.78;;;27.90;1.00;;;;;;5091223;28;20225;-82
2023/07/16 12:22:18;;;;;;;5.05;2.80;;;28.00;1.00;;;;;;5096614;28;20229;-82
2023/07/16 12:24:45;;;;;;;3.33;2.70;;;28.20;1.00;;;;;;5095323;28;20584;-82
2023/07/16 12:27:12;;;;;;;3.03;2.53;;;28.30;1.00;;;;;;5092968;28;20202;-82
2023/07/16 12:29:38;;;;;;;5.07;2.78;;;28.20;1.00;;;;;;5086002;28;20224;-81
2023/07/16 12:32:06;;;;;;;3.30;2.70;;;27.90;1.00;;;;;;5095771;28;20241;-82
2023/07/16 12:34:33;;;;;;;3.75;3.03;;;28.30;1.00;;;;;;5087244;28;20256;-82
2023/07/16 12:37:02;;;;;;;3.80;2.55;;;28.40;1.00;;;;;;5097094;28;20918;-81
2023/07/16 12:39:29;;;;;;;5.18;2.60;;;28.60;1.00;;;;;;5093031;28;20221;-82
2023/07/16 12:41:56;;;;;;;4.15;2.70;;;28.30;1.00;;;;;;5089207;28;20228;-83
2023/07/16 12:44:23;;;;;;;5.40;2.60;;;28.50;1.00;;;;;;5095119;28;20193;-81
2023/07/16 12:46:50;;;;;;;3.58;2.67;;;27.50;99.90;;;;;;5090842;28;20252;-81
2023/07/16 12:49:17;;;;;;;4.45;2.92;;;27.50;1.00;;;;;;5092053;28;20247;-80
2023/07/16 12:51:44;;;;;;;4.28;2.67;;;27.80;1.00;;;;;;5094435;28;20646;-81